createdAt,value
2022-11-26T00:04:51.397Z,3.77
2022-11-26T00:09:58.521Z,7.00
2022-11-26T00:15:29.775Z,6.07
2022-11-26T00:20:32.365Z,6.53
2022-11-26T00:25:44.779Z,5.80
2022-11-26T00:30:47.313Z,4.60
2022-11-26T00:35:54.033Z,6.87
2022-11-26T00:40:57.197Z,5.60
2022-11-26T00:45:59.967Z,8.03
2022-11-26T00:51:02.534Z,3.90
2022-11-26T00:56:05.227Z,4.23
2022-11-26T01:01:10.421Z,4.67
2022-11-26T01:06:21.218Z,5.27
2022-11-26T01:11:25.046Z,3.40
2022-11-26T01:16:27.497Z,3.37
2022-11-26T01:21:31.618Z,7.20
2022-11-26T01:26:38.832Z,4.53
2022-11-26T01:31:41.341Z,2.70
2022-11-26T01:36:44.772Z,3.27
2022-11-26T01:41:47.260Z,6.43
2022-11-26T01:46:51.795Z,5.70
2022-11-26T01:52:05.144Z,3.77
2022-11-26T01:57:16.093Z,3.53
2022-11-26T02:02:19.982Z,2.20
2022-11-26T02:07:22.892Z,3.93
2022-11-26T02:12:25.367Z,2.20
2022-11-26T02:17:43.824Z,2.43
2022-11-26T02:22:55.427Z,3.20
2022-11-26T02:28:15.126Z,4.90
2022-11-26T02:33:49.257Z,5.13
2022-11-26T02:38:51.880Z,4.07
2022-11-26T02:43:54.401Z,4.40
2022-11-26T02:48:56.834Z,6.50
2022-11-26T02:54:00.801Z,3.73
2022-11-26T02:59:06.194Z,3.83
2022-11-26T03:04:14.610Z,4.10
2022-11-26T03:09:18.141Z,5.70
2022-11-26T03:14:20.474Z,5.50
2022-11-26T03:19:22.870Z,3.93
2022-11-26T03:24:28.009Z,3.97
2022-11-26T03:29:30.796Z,4.87
2022-11-26T03:34:33.305Z,6.33
2022-11-26T03:39:35.908Z,5.43
2022-11-26T03:44:38.834Z,3.97
2022-11-26T03:49:41.338Z,6.23
2022-11-26T03:54:43.746Z,5.43
2022-11-26T03:59:46.135Z,4.40
2022-11-26T04:04:48.527Z,3.37
2022-11-26T04:09:50.858Z,3.23
2022-11-26T04:14:53.268Z,2.93
2022-11-26T04:19:55.640Z,4.70
2022-11-26T04:24:59.886Z,4.53
2022-11-26T04:30:02.217Z,5.57
2022-11-26T04:35:04.969Z,5.80
2022-11-26T04:40:08.298Z,6.13
2022-11-26T04:45:11.239Z,6.20
2022-11-26T04:50:13.715Z,6.80
2022-11-26T04:55:17.918Z,4.13
2022-11-26T05:00:20.747Z,4.63
2022-11-26T05:05:23.160Z,4.50
2022-11-26T05:10:26.804Z,4.33
2022-11-26T05:15:29.586Z,6.37
2022-11-26T05:20:32.128Z,7.13
2022-11-26T05:25:34.483Z,3.77
2022-11-26T05:30:37.401Z,5.90
2022-11-26T05:35:39.964Z,4.57
2022-11-26T05:40:42.398Z,4.10
2022-11-26T05:45:45.013Z,6.20
2022-11-26T05:50:51.593Z,5.97
2022-11-26T05:55:57.194Z,7.50
2022-11-26T06:00:59.857Z,6.17
2022-11-26T06:06:02.744Z,5.20
2022-11-26T06:11:05.218Z,6.40
2022-11-26T06:16:08.169Z,5.10
2022-11-26T06:21:11.624Z,6.40
2022-11-26T06:26:14.303Z,6.50
2022-11-26T06:31:16.776Z,6.60
2022-11-26T06:36:19.217Z,9.87
2022-11-26T06:41:21.588Z,9.27
2022-11-26T06:46:23.978Z,5.80
2022-11-26T06:51:27.842Z,7.80
2022-11-26T06:56:30.671Z,8.47
2022-11-26T07:01:33.183Z,6.97
2022-11-26T07:06:35.970Z,6.27
2022-11-26T07:11:40.010Z,8.13
2022-11-26T07:16:42.357Z,5.20
2022-11-26T07:21:44.753Z,5.43
2022-11-26T07:26:47.228Z,8.53
2022-11-26T07:31:49.695Z,5.10
2022-11-26T07:36:56.757Z,5.40
2022-11-26T07:42:01.091Z,6.70
2022-11-26T07:47:04.426Z,4.27
2022-11-26T07:52:06.826Z,5.20
2022-11-26T07:57:10.320Z,9.03
2022-11-26T08:02:15.914Z,3.43
2022-11-26T08:07:24.621Z,6.17
2022-11-26T08:12:30.691Z,4.50
2022-11-26T08:17:33.157Z,7.20
2022-11-26T08:22:35.521Z,6.33
2022-11-26T08:27:37.982Z,6.77
2022-11-26T08:32:40.393Z,6.23
2022-11-26T08:37:42.827Z,5.23
2022-11-26T08:42:45.200Z,6.13
2022-11-26T08:47:47.645Z,4.53
2022-11-26T08:52:50.057Z,3.57
2022-11-26T08:57:52.489Z,9.20
2022-11-26T09:02:54.963Z,4.53
2022-11-26T09:07:57.532Z,10.27
2022-11-26T09:13:00.124Z,9.17
2022-11-26T09:18:03.871Z,5.80
2022-11-26T09:23:06.367Z,9.37
2022-11-26T09:28:08.786Z,5.43
2022-11-26T09:33:11.173Z,5.80
2022-11-26T09:38:13.510Z,6.87
2022-11-26T09:43:24.671Z,6.47
2022-11-26T09:48:30.605Z,5.77
2022-11-26T09:53:41.782Z,6.00
2022-11-26T09:59:03.612Z,5.40
2022-11-26T10:04:16.869Z,4.87
2022-11-26T10:09:28.204Z,4.43
2022-11-26T10:15:01.402Z,5.40
2022-11-26T10:20:36.449Z,2.97
2022-11-26T10:26:05.533Z,7.07
2022-11-26T10:31:19.962Z,5.43
2022-11-26T10:36:34.820Z,5.40
2022-11-26T10:41:38.048Z,5.07
2022-11-26T10:46:40.928Z,5.47
2022-11-26T10:51:48.586Z,5.30
2022-11-26T10:56:55.108Z,3.97
2022-11-26T11:02:26.011Z,4.93
2022-11-26T11:07:34.063Z,6.63
2022-11-26T11:12:41.495Z,4.60
2022-11-26T11:17:45.465Z,5.77
2022-11-26T11:22:48.034Z,6.87
2022-11-26T11:27:51.267Z,3.40
2022-11-26T11:32:57.321Z,5.00
2022-11-26T11:38:00.326Z,7.87
2022-11-26T11:43:05.274Z,5.50
2022-11-26T11:48:16.151Z,6.37
2022-11-26T11:53:30.270Z,5.90
2022-11-26T11:58:47.786Z,7.13
2022-11-26T12:04:21.168Z,4.10
2022-11-26T12:09:53.039Z,8.43
2022-11-26T12:15:06.855Z,5.10
2022-11-26T12:20:25.692Z,4.50
2022-11-26T12:25:37.290Z,4.30
2022-11-26T12:31:05.841Z,8.13
2022-11-26T12:36:17.454Z,3.80
2022-11-26T12:41:26.113Z,4.73
2022-11-26T12:46:45.649Z,5.03
2022-11-26T12:51:53.676Z,5.87
2022-11-26T12:57:15.499Z,7.27
2022-11-26T13:02:30.546Z,4.97
2022-11-26T13:07:35.816Z,4.30
2022-11-26T13:12:55.561Z,5.83
2022-11-26T13:18:01.243Z,6.27
2022-11-26T13:23:15.646Z,5.03
2022-11-26T13:28:36.180Z,6.43
2022-11-26T13:33:57.057Z,7.30
2022-11-26T13:39:02.477Z,7.50
2022-11-26T13:44:16.781Z,7.37
2022-11-26T13:49:32.600Z,8.90
2022-11-26T13:54:42.670Z,8.13
2022-11-26T13:59:51.465Z,7.90
2022-11-26T14:04:54.312Z,6.10
2022-11-26T14:10:00.221Z,7.67
2022-11-26T14:15:02.881Z,4.57
2022-11-26T14:20:06.149Z,5.33
2022-11-26T14:25:13.344Z,5.90
2022-11-26T14:30:24.753Z,5.17
2022-11-26T14:35:34.078Z,5.53
2022-11-26T14:40:38.452Z,5.73
2022-11-26T14:45:42.451Z,9.60
2022-11-26T14:50:45.904Z,8.53
2022-11-26T14:55:50.003Z,8.67
2022-11-26T15:01:07.337Z,5.30
2022-11-26T15:06:38.073Z,8.23
2022-11-26T15:11:47.352Z,6.17
2022-11-26T15:16:56.522Z,8.00
2022-11-26T15:22:00.339Z,7.93
2022-11-26T15:27:02.974Z,10.67
2022-11-26T15:32:05.706Z,10.87
2022-11-26T15:37:08.211Z,9.53
2022-11-26T15:42:30.172Z,9.20
2022-11-26T15:47:32.975Z,6.57
2022-11-26T15:52:37.120Z,7.87
2022-11-26T15:57:42.007Z,9.00
2022-11-26T16:02:45.425Z,12.77
2022-11-26T16:08:03.350Z,12.17
2022-11-26T16:13:19.752Z,10.00
2022-11-26T16:18:25.952Z,9.97
2022-11-26T16:23:30.043Z,13.00
2022-11-26T16:28:32.663Z,17.37
2022-11-26T16:33:35.024Z,14.37
2022-11-26T16:38:37.391Z,12.50
2022-11-26T16:43:39.786Z,10.80
2022-11-26T16:48:43.205Z,10.10
2022-11-26T16:53:45.876Z,12.80
2022-11-26T16:58:48.786Z,15.10
2022-11-26T17:03:51.347Z,13.40
2022-11-26T17:08:56.499Z,12.50
2022-11-26T17:13:59.053Z,12.53
2022-11-26T17:19:01.952Z,12.50
2022-11-26T17:24:04.597Z,14.03
2022-11-26T17:29:07.076Z,13.13
2022-11-26T17:34:09.512Z,12.10
2022-11-26T17:39:12.241Z,15.33
2022-11-26T17:44:14.597Z,10.80
2022-11-26T17:49:17.216Z,10.57
2022-11-26T17:54:19.843Z,14.53
2022-11-26T17:59:23.947Z,11.53
2022-11-26T18:04:26.531Z,13.20
2022-11-26T18:09:29.024Z,9.33
2022-11-26T18:14:35.552Z,11.73
2022-11-26T18:19:43.363Z,12.70
2022-11-26T18:24:57.056Z,17.20
2022-11-26T18:30:00.552Z,16.43
2022-11-26T18:35:03.439Z,14.77
2022-11-26T18:40:17.112Z,15.67
2022-11-26T18:45:19.574Z,13.23
2022-11-26T18:50:21.996Z,16.33
2022-11-26T18:55:24.364Z,10.90
2022-11-26T19:00:26.760Z,16.20
2022-11-26T19:05:29.203Z,14.17
2022-11-26T19:10:33.005Z,12.90
2022-11-26T19:15:40.161Z,18.73
2022-11-26T19:20:52.841Z,15.53
2022-11-26T19:25:56.389Z,19.13
2022-11-26T19:31:03.973Z,15.63
2022-11-26T19:36:12.850Z,13.40
2022-11-26T19:41:15.399Z,14.03
2022-11-26T19:46:20.442Z,14.13
2022-11-26T19:51:24.552Z,13.73
2022-11-26T19:56:29.862Z,14.67
2022-11-26T20:01:34.735Z,14.27
2022-11-26T20:06:38.805Z,18.33
2022-11-26T20:11:42.242Z,15.73
2022-11-26T20:16:45.675Z,14.40
2022-11-26T20:21:50.573Z,16.17
2022-11-26T20:26:53.188Z,21.50
2022-11-26T20:31:55.878Z,15.60
2022-11-26T20:36:58.429Z,14.87
2022-11-26T20:42:01.302Z,12.70
2022-11-26T20:47:03.772Z,14.57
2022-11-26T20:52:09.615Z,12.00
2022-11-26T20:57:11.990Z,14.03
2022-11-26T21:02:15.580Z,12.53
2022-11-26T21:07:18.486Z,13.40
2022-11-26T21:12:20.998Z,12.87
2022-11-26T21:17:23.536Z,15.63
2022-11-26T21:22:26.039Z,13.97
2022-11-26T21:27:28.533Z,15.23
2022-11-26T21:32:31.235Z,14.97
2022-11-26T21:37:33.896Z,13.57
2022-11-26T21:42:36.424Z,10.47
2022-11-26T21:47:38.767Z,12.47
2022-11-26T21:52:41.124Z,16.67
2022-11-26T21:57:43.510Z,18.60
2022-11-26T22:02:45.959Z,16.83
2022-11-26T22:07:48.610Z,17.87
2022-11-26T22:12:51.435Z,15.67
2022-11-26T22:17:55.806Z,18.20
2022-11-26T22:22:58.149Z,16.93
2022-11-26T22:28:00.902Z,17.60
2022-11-26T22:33:05.491Z,16.97
2022-11-26T22:38:07.891Z,17.63
2022-11-26T22:43:10.731Z,17.83
2022-11-26T22:48:13.306Z,19.37
2022-11-26T22:53:15.717Z,15.67
2022-11-26T22:58:19.362Z,17.50
2022-11-26T23:03:22.467Z,14.63
2022-11-26T23:08:25.024Z,16.57
2022-11-26T23:13:27.419Z,17.80
2022-11-26T23:18:29.909Z,16.47
2022-11-26T23:23:32.889Z,18.07
2022-11-26T23:28:36.463Z,10.50
2022-11-26T23:33:38.815Z,13.80
2022-11-26T23:38:41.787Z,12.37
2022-11-26T23:43:45.215Z,8.73
2022-11-26T23:48:48.518Z,6.37
2022-11-26T23:53:51.817Z,8.07
2022-11-26T23:58:57.320Z,7.13
